sensor_id;sensor_type;location;lat;lon;timestamp;temperature;humidity
66271;DHT22;53063;39.614;8.814;2024-03-07T00:00:10;8.50;99.90
66271;DHT22;53063;39.614;8.814;2024-03-07T00:02:49;8.50;99.90
66271;DHT22;53063;39.614;8.814;2024-03-07T00:05:16;8.50;99.90
66271;DHT22;53063;39.614;8.814;2024-03-07T00:07:42;8.50;99.90
66271;DHT22;53063;39.614;8.814;2024-03-07T00:10:09;8.50;99.90
66271;DHT22;53063;39.614;8.814;2024-03-07T00:12:36;8.50;99.90
66271;DHT22;53063;39.614;8.814;2024-03-07T00:15:05;8.40;99.90
66271;DHT22;53063;39.614;8.814;2024-03-07T00:17:31;8.40;99.90
66271;DHT22;53063;39.614;8.814;2024-03-07T00:19:57;8.40;99.90
66271;DHT22;53063;39.614;8.814;2024-03-07T00:22:23;8.40;99.90
66271;DHT22;53063;39.614;8.814;2024-03-07T00:24:53;8.40;99.90
66271;DHT22;53063;39.614;8.814;2024-03-07T00:27:18;8.50;99.90
66271;DHT22;53063;39.614;8.814;2024-03-07T00:29:47;8.50;99.90
66271;DHT22;53063;39.614;8.814;2024-03-07T00:32:20;8.50;99.90
66271;DHT22;53063;39.614;8.814;2024-03-07T00:34:46;8.50;99.90
66271;DHT22;53063;39.614;8.814;2024-03-07T00:37:12;8.40;99.90
66271;DHT22;53063;39.614;8.814;2024-03-07T00:39:38;8.30;99.90
66271;DHT22;53063;39.614;8.814;2024-03-07T00:42:04;8.30;99.90
66271;DHT22;53063;39.614;8.814;2024-03-07T00:44:30;8.20;99.90
66271;DHT22;53063;39.614;8.814;2024-03-07T00:46:56;8.20;99.90
66271;DHT22;53063;39.614;8.814;2024-03-07T00:49:23;8.20;99.90
66271;DHT22;53063;39.614;8.814;2024-03-07T00:51:49;8.10;99.90
66271;DHT22;53063;39.614;8.814;2024-03-07T00:54:15;8.20;99.90
66271;DHT22;53063;39.614;8.814;2024-03-07T00:56:41;8.20;99.90
66271;DHT22;53063;39.614;8.814;2024-03-07T00:59:07;8.20;99.90
66271;DHT22;53063;39.614;8.814;2024-03-07T01:01:33;8.30;99.90
66271;DHT22;53063;39.614;8.814;2024-03-07T01:04:01;8.30;99.90
66271;DHT22;53063;39.614;8.814;2024-03-07T01:06:28;8.30;99.90
66271;DHT22;53063;39.614;8.814;2024-03-07T01:08:54;8.40;99.90
66271;DHT22;53063;39.614;8.814;2024-03-07T01:11:20;8.40;99.90
66271;DHT22;53063;39.614;8.814;2024-03-07T01:13:45;8.40;99.90
66271;DHT22;53063;39.614;8.814;2024-03-07T01:16:11;8.40;99.90
66271;DHT22;53063;39.614;8.814;2024-03-07T01:18:38;8.40;99.90
66271;DHT22;53063;39.614;8.814;2024-03-07T01:21:04;8.30;99.90
66271;DHT22;53063;39.614;8.814;2024-03-07T01:23:31;8.30;99.90
66271;DHT22;53063;39.614;8.814;2024-03-07T01:25:58;8.20;99.90
66271;DHT22;53063;39.614;8.814;2024-03-07T01:28:25;8.30;99.90
66271;DHT22;53063;39.614;8.814;2024-03-07T01:30:52;8.30;99.90
66271;DHT22;53063;39.614;8.814;2024-03-07T01:33:19;8.30;99.90
66271;DHT22;53063;39.614;8.814;2024-03-07T01:35:48;8.30;99.90
66271;DHT22;53063;39.614;8.814;2024-03-07T01:38:14;8.20;99.90
66271;DHT22;53063;39.614;8.814;2024-03-07T01:40:41;8.10;99.90
66271;DHT22;53063;39.614;8.814;2024-03-07T01:43:07;8.00;99.90
66271;DHT22;53063;39.614;8.814;2024-03-07T01:45:33;8.00;99.90
66271;DHT22;53063;39.614;8.814;2024-03-07T01:48:03;8.10;99.90
66271;DHT22;53063;39.614;8.814;2024-03-07T01:50:30;8.10;99.90
66271;DHT22;53063;39.614;8.814;2024-03-07T01:52:56;8.00;99.90
66271;DHT22;53063;39.614;8.814;2024-03-07T01:55:22;7.90;99.90
66271;DHT22;53063;39.614;8.814;2024-03-07T01:57:49;7.70;99.90
66271;DHT22;53063;39.614;8.814;2024-03-07T02:00:15;7.50;99.90
66271;DHT22;53063;39.614;8.814;2024-03-07T02:02:45;7.50;99.90
66271;DHT22;53063;39.614;8.814;2024-03-07T02:05:11;7.60;99.90
66271;DHT22;53063;39.614;8.814;2024-03-07T02:07:37;7.70;99.90
66271;DHT22;53063;39.614;8.814;2024-03-07T02:10:05;7.60;99.90
66271;DHT22;53063;39.614;8.814;2024-03-07T02:12:32;7.60;99.90
66271;DHT22;53063;39.614;8.814;2024-03-07T02:14:58;7.50;99.90
66271;DHT22;53063;39.614;8.814;2024-03-07T02:17:25;7.40;99.90
66271;DHT22;53063;39.614;8.814;2024-03-07T02:19:51;7.30;99.90
66271;DHT22;53063;39.614;8.814;2024-03-07T02:22:18;7.30;99.90
66271;DHT22;53063;39.614;8.814;2024-03-07T02:24:45;7.30;99.90
66271;DHT22;53063;39.614;8.814;2024-03-07T02:27:11;7.30;99.90
66271;DHT22;53063;39.614;8.814;2024-03-07T02:29:37;7.30;99.90
66271;DHT22;53063;39.614;8.814;2024-03-07T02:32:03;7.30;99.90
66271;DHT22;53063;39.614;8.814;2024-03-07T02:34:29;7.20;99.90
66271;DHT22;53063;39.614;8.814;2024-03-07T02:36:55;7.20;99.90
66271;DHT22;53063;39.614;8.814;2024-03-07T02:39:21;7.20;99.90
66271;DHT22;53063;39.614;8.814;2024-03-07T02:41:47;7.10;99.90
66271;DHT22;53063;39.614;8.814;2024-03-07T02:44:14;7.00;99.90
66271;DHT22;53063;39.614;8.814;2024-03-07T02:46:40;7.00;99.90
66271;DHT22;53063;39.614;8.814;2024-03-07T02:49:06;7.10;99.90
66271;DHT22;53063;39.614;8.814;2024-03-07T02:51:32;7.10;99.90
66271;DHT22;53063;39.614;8.814;2024-03-07T02:53:58;7.40;99.90
66271;DHT22;53063;39.614;8.814;2024-03-07T02:56:24;7.30;99.90
66271;DHT22;53063;39.614;8.814;2024-03-07T02:58:51;7.30;99.90
66271;DHT22;53063;39.614;8.814;2024-03-07T03:01:17;7.30;99.90
66271;DHT22;53063;39.614;8.814;2024-03-07T03:03:43;7.10;99.90
66271;DHT22;53063;39.614;8.814;2024-03-07T03:06:10;7.00;99.90
66271;DHT22;53063;39.614;8.814;2024-03-07T03:08:37;6.90;99.90
66271;DHT22;53063;39.614;8.814;2024-03-07T03:11:03;6.90;99.90
66271;DHT22;53063;39.614;8.814;2024-03-07T03:13:29;6.80;99.90
66271;DHT22;53063;39.614;8.814;2024-03-07T03:15:56;7.00;99.90
66271;DHT22;53063;39.614;8.814;2024-03-07T03:18:25;6.90;99.90
66271;DHT22;53063;39.614;8.814;2024-03-07T03:20:51;7.00;99.90
66271;DHT22;53063;39.614;8.814;2024-03-07T03:23:18;7.00;99.90
66271;DHT22;53063;39.614;8.814;2024-03-07T03:25:46;7.10;99.90
66271;DHT22;53063;39.614;8.814;2024-03-07T03:28:13;7.20;99.90
66271;DHT22;53063;39.614;8.814;2024-03-07T03:30:40;7.30;99.90
66271;DHT22;53063;39.614;8.814;2024-03-07T03:33:09;7.30;99.90
66271;DHT22;53063;39.614;8.814;2024-03-07T03:35:35;7.40;99.90
66271;DHT22;53063;39.614;8.814;2024-03-07T03:38:01;7.50;99.90
66271;DHT22;53063;39.614;8.814;2024-03-07T03:40:27;7.40;99.90
66271;DHT22;53063;39.614;8.814;2024-03-07T03:42:53;7.30;99.90
66271;DHT22;53063;39.614;8.814;2024-03-07T03:45:20;7.30;99.90
66271;DHT22;53063;39.614;8.814;2024-03-07T03:47:46;7.30;99.90
66271;DHT22;53063;39.614;8.814;2024-03-07T03:50:13;7.20;99.90
66271;DHT22;53063;39.614;8.814;2024-03-07T03:52:42;7.10;99.90
66271;DHT22;53063;39.614;8.814;2024-03-07T03:55:08;7.10;99.90
66271;DHT22;53063;39.614;8.814;2024-03-07T03:57:39;7.00;99.90
66271;DHT22;53063;39.614;8.814;2024-03-07T04:00:06;6.80;99.90
66271;DHT22;53063;39.614;8.814;2024-03-07T04:02:45;6.50;99.90
66271;DHT22;53063;39.614;8.814;2024-03-07T04:05:15;6.50;99.90
66271;DHT22;53063;39.614;8.814;2024-03-07T04:07:42;6.50;99.90
66271;DHT22;53063;39.614;8.814;2024-03-07T04:10:08;6.50;99.90
66271;DHT22;53063;39.614;8.814;2024-03-07T04:12:36;6.60;99.90
66271;DHT22;53063;39.614;8.814;2024-03-07T04:15:10;6.70;99.90
66271;DHT22;53063;39.614;8.814;2024-03-07T04:17:37;6.70;99.90
66271;DHT22;53063;39.614;8.814;2024-03-07T04:20:04;6.70;99.90
66271;DHT22;53063;39.614;8.814;2024-03-07T04:22:36;6.60;99.90
66271;DHT22;53063;39.614;8.814;2024-03-07T04:25:05;6.60;99.90
66271;DHT22;53063;39.614;8.814;2024-03-07T04:27:36;6.60;99.90
66271;DHT22;53063;39.614;8.814;2024-03-07T04:30:09;6.60;99.90
66271;DHT22;53063;39.614;8.814;2024-03-07T04:32:36;6.50;99.90
66271;DHT22;53063;39.614;8.814;2024-03-07T04:35:04;6.40;99.90
66271;DHT22;53063;39.614;8.814;2024-03-07T04:37:33;6.50;99.90
66271;DHT22;53063;39.614;8.814;2024-03-07T04:40:05;6.40;99.90
66271;DHT22;53063;39.614;8.814;2024-03-07T04:42:46;6.40;99.90
66271;DHT22;53063;39.614;8.814;2024-03-07T04:45:12;6.40;99.90
66271;DHT22;53063;39.614;8.814;2024-03-07T04:47:45;6.70;99.90
66271;DHT22;53063;39.614;8.814;2024-03-07T04:50:12;6.80;99.90
66271;DHT22;53063;39.614;8.814;2024-03-07T04:52:39;6.70;99.90
66271;DHT22;53063;39.614;8.814;2024-03-07T04:55:09;6.60;99.90
66271;DHT22;53063;39.614;8.814;2024-03-07T04:57:37;6.80;99.90
66271;DHT22;53063;39.614;8.814;2024-03-07T05:00:06;6.90;99.90
66271;DHT22;53063;39.614;8.814;2024-03-07T05:02:32;6.90;99.90
66271;DHT22;53063;39.614;8.814;2024-03-07T05:04:58;6.90;99.90
66271;DHT22;53063;39.614;8.814;2024-03-07T05:07:23;6.90;99.90
66271;DHT22;53063;39.614;8.814;2024-03-07T05:09:49;6.90;99.90
66271;DHT22;53063;39.614;8.814;2024-03-07T05:12:15;6.80;99.90
66271;DHT22;53063;39.614;8.814;2024-03-07T05:14:41;6.60;99.90
66271;DHT22;53063;39.614;8.814;2024-03-07T05:17:07;6.50;99.90
66271;DHT22;53063;39.614;8.814;2024-03-07T05:19:35;6.50;99.90
66271;DHT22;53063;39.614;8.814;2024-03-07T05:22:02;6.60;99.90
66271;DHT22;53063;39.614;8.814;2024-03-07T05:24:33;6.60;99.90
66271;DHT22;53063;39.614;8.814;2024-03-07T05:26:59;6.50;99.90
66271;DHT22;53063;39.614;8.814;2024-03-07T05:29:25;6.50;99.90
66271;DHT22;53063;39.614;8.814;2024-03-07T05:31:51;6.60;99.90
66271;DHT22;53063;39.614;8.814;2024-03-07T05:34:17;6.50;99.90
66271;DHT22;53063;39.614;8.814;2024-03-07T05:36:48;6.50;99.90
66271;DHT22;53063;39.614;8.814;2024-03-07T05:39:16;6.50;99.90
66271;DHT22;53063;39.614;8.814;2024-03-07T05:41:43;6.30;99.90
66271;DHT22;53063;39.614;8.814;2024-03-07T05:44:12;6.20;99.90
66271;DHT22;53063;39.614;8.814;2024-03-07T05:46:41;6.30;99.90
66271;DHT22;53063;39.614;8.814;2024-03-07T05:49:15;6.20;99.90
66271;DHT22;53063;39.614;8.814;2024-03-07T05:51:43;6.30;99.90
66271;DHT22;53063;39.614;8.814;2024-03-07T05:54:13;6.40;99.90
66271;DHT22;53063;39.614;8.814;2024-03-07T05:56:40;6.40;99.90
66271;DHT22;53063;39.614;8.814;2024-03-07T05:59:07;6.50;99.90
66271;DHT22;53063;39.614;8.814;2024-03-07T06:01:35;6.60;99.90
66271;DHT22;53063;39.614;8.814;2024-03-07T06:04:02;6.50;99.90
66271;DHT22;53063;39.614;8.814;2024-03-07T06:06:32;6.50;99.90
66271;DHT22;53063;39.614;8.814;2024-03-07T06:09:00;6.50;99.90
66271;DHT22;53063;39.614;8.814;2024-03-07T06:11:28;6.60;99.90
66271;DHT22;53063;39.614;8.814;2024-03-07T06:13:54;6.60;99.90
66271;DHT22;53063;39.614;8.814;2024-03-07T06:16:20;6.40;99.90
66271;DHT22;53063;39.614;8.814;2024-03-07T06:18:46;6.30;99.90
66271;DHT22;53063;39.614;8.814;2024-03-07T06:21:12;6.40;99.90
66271;DHT22;53063;39.614;8.814;2024-03-07T06:23:39;6.70;99.90
66271;DHT22;53063;39.614;8.814;2024-03-07T06:26:05;6.90;99.90
66271;DHT22;53063;39.614;8.814;2024-03-07T06:28:38;6.80;99.90
66271;DHT22;53063;39.614;8.814;2024-03-07T06:31:05;6.50;99.90
66271;DHT22;53063;39.614;8.814;2024-03-07T06:33:34;6.60;99.90
66271;DHT22;53063;39.614;8.814;2024-03-07T06:36:00;6.90;99.90
66271;DHT22;53063;39.614;8.814;2024-03-07T06:38:28;7.30;99.90
66271;DHT22;53063;39.614;8.814;2024-03-07T06:40:54;7.80;99.90
66271;DHT22;53063;39.614;8.814;2024-03-07T06:43:20;8.60;99.90
66271;DHT22;53063;39.614;8.814;2024-03-07T06:45:46;9.70;99.90
66271;DHT22;53063;39.614;8.814;2024-03-07T06:48:12;10.50;99.90
66271;DHT22;53063;39.614;8.814;2024-03-07T06:50:39;11.00;99.90
66271;DHT22;53063;39.614;8.814;2024-03-07T06:53:06;11.80;99.90
66271;DHT22;53063;39.614;8.814;2024-03-07T06:55:32;12.20;99.90
66271;DHT22;53063;39.614;8.814;2024-03-07T06:58:01;12.60;99.90
66271;DHT22;53063;39.614;8.814;2024-03-07T07:00:30;11.80;99.90
66271;DHT22;53063;39.614;8.814;2024-03-07T07:03:01;11.50;99.90
66271;DHT22;53063;39.614;8.814;2024-03-07T07:05:29;11.50;99.90
66271;DHT22;53063;39.614;8.814;2024-03-07T07:07:55;11.50;99.90
66271;DHT22;53063;39.614;8.814;2024-03-07T07:10:21;11.20;99.90
66271;DHT22;53063;39.614;8.814;2024-03-07T07:12:49;12.60;99.90
66271;DHT22;53063;39.614;8.814;2024-03-07T07:15:17;14.80;99.90
66271;DHT22;53063;39.614;8.814;2024-03-07T07:17:44;17.10;99.90
66271;DHT22;53063;39.614;8.814;2024-03-07T07:20:17;17.80;96.60
66271;DHT22;53063;39.614;8.814;2024-03-07T07:22:45;18.20;85.10
66271;DHT22;53063;39.614;8.814;2024-03-07T07:25:14;18.00;83.00
66271;DHT22;53063;39.614;8.814;2024-03-07T07:27:51;17.90;81.70
66271;DHT22;53063;39.614;8.814;2024-03-07T07:30:21;18.80;77.20
66271;DHT22;53063;39.614;8.814;2024-03-07T07:32:51;18.30;76.80
66271;DHT22;53063;39.614;8.814;2024-03-07T07:35:19;18.50;76.40
66271;DHT22;53063;39.614;8.814;2024-03-07T07:37:48;18.40;72.70
66271;DHT22;53063;39.614;8.814;2024-03-07T07:40:16;18.60;77.00
66271;DHT22;53063;39.614;8.814;2024-03-07T07:42:45;18.70;72.90
66271;DHT22;53063;39.614;8.814;2024-03-07T07:45:13;18.80;72.00
66271;DHT22;53063;39.614;8.814;2024-03-07T07:47:46;19.60;71.20
66271;DHT22;53063;39.614;8.814;2024-03-07T07:50:16;20.80;62.90
66271;DHT22;53063;39.614;8.814;2024-03-07T07:52:52;21.20;63.80
66271;DHT22;53063;39.614;8.814;2024-03-07T07:55:24;20.80;61.90
66271;DHT22;53063;39.614;8.814;2024-03-07T07:58:01;21.00;63.90
66271;DHT22;53063;39.614;8.814;2024-03-07T08:00:30;21.00;61.70
66271;DHT22;53063;39.614;8.814;2024-03-07T08:02:58;21.70;59.30
66271;DHT22;53063;39.614;8.814;2024-03-07T08:05:29;21.90;59.00
66271;DHT22;53063;39.614;8.814;2024-03-07T08:07:57;21.80;57.60
66271;DHT22;53063;39.614;8.814;2024-03-07T08:10:30;22.00;60.90
66271;DHT22;53063;39.614;8.814;2024-03-07T08:12:57;22.70;54.70
66271;DHT22;53063;39.614;8.814;2024-03-07T08:15:24;23.20;54.90
66271;DHT22;53063;39.614;8.814;2024-03-07T08:17:50;22.90;54.70
66271;DHT22;53063;39.614;8.814;2024-03-07T08:20:19;22.60;53.30
66271;DHT22;53063;39.614;8.814;2024-03-07T08:22:47;23.20;54.00
66271;DHT22;53063;39.614;8.814;2024-03-07T08:25:16;23.10;51.90
66271;DHT22;53063;39.614;8.814;2024-03-07T08:27:45;23.40;54.40
66271;DHT22;53063;39.614;8.814;2024-03-07T08:30:12;24.50;51.60
66271;DHT22;53063;39.614;8.814;2024-03-07T08:32:42;24.10;50.20
66271;DHT22;53063;39.614;8.814;2024-03-07T08:35:08;24.60;49.80
66271;DHT22;53063;39.614;8.814;2024-03-07T08:37:38;25.30;47.90
66271;DHT22;53063;39.614;8.814;2024-03-07T08:40:05;23.80;49.40
66271;DHT22;53063;39.614;8.814;2024-03-07T08:42:33;24.80;48.90
66271;DHT22;53063;39.614;8.814;2024-03-07T08:45:00;25.70;47.20
66271;DHT22;53063;39.614;8.814;2024-03-07T08:47:27;24.90;45.30
66271;DHT22;53063;39.614;8.814;2024-03-07T08:49:54;23.70;46.80
66271;DHT22;53063;39.614;8.814;2024-03-07T08:52:20;22.70;49.80
66271;DHT22;53063;39.614;8.814;2024-03-07T08:54:46;22.20;50.80
66271;DHT22;53063;39.614;8.814;2024-03-07T08:57:12;22.70;49.90
66271;DHT22;53063;39.614;8.814;2024-03-07T08:59:42;24.00;47.00
66271;DHT22;53063;39.614;8.814;2024-03-07T09:02:09;24.60;44.90
66271;DHT22;53063;39.614;8.814;2024-03-07T09:04:37;24.90;44.00
66271;DHT22;53063;39.614;8.814;2024-03-07T09:07:07;23.80;48.50
66271;DHT22;53063;39.614;8.814;2024-03-07T09:09:34;25.50;43.90
66271;DHT22;53063;39.614;8.814;2024-03-07T09:12:02;26.30;40.90
66271;DHT22;53063;39.614;8.814;2024-03-07T09:14:28;25.70;40.90
66271;DHT22;53063;39.614;8.814;2024-03-07T09:16:54;25.80;40.10
66271;DHT22;53063;39.614;8.814;2024-03-07T09:19:20;26.40;41.00
66271;DHT22;53063;39.614;8.814;2024-03-07T09:21:53;26.00;40.30
66271;DHT22;53063;39.614;8.814;2024-03-07T09:24:19;25.90;40.20
66271;DHT22;53063;39.614;8.814;2024-03-07T09:26:51;27.10;39.20
66271;DHT22;53063;39.614;8.814;2024-03-07T09:29:19;25.00;40.50
66271;DHT22;53063;39.614;8.814;2024-03-07T09:31:45;25.10;40.50
66271;DHT22;53063;39.614;8.814;2024-03-07T09:34:13;26.30;41.60
66271;DHT22;53063;39.614;8.814;2024-03-07T09:36:39;28.30;36.60
66271;DHT22;53063;39.614;8.814;2024-03-07T09:39:08;28.30;37.80
66271;DHT22;53063;39.614;8.814;2024-03-07T09:41:35;27.80;38.40
66271;DHT22;53063;39.614;8.814;2024-03-07T09:44:01;25.10;40.10
66271;DHT22;53063;39.614;8.814;2024-03-07T09:46:28;20.50;47.30
66271;DHT22;53063;39.614;8.814;2024-03-07T09:48:55;19.60;53.60
66271;DHT22;53063;39.614;8.814;2024-03-07T09:51:21;20.30;55.60
66271;DHT22;53063;39.614;8.814;2024-03-07T09:53:49;19.70;53.20
66271;DHT22;53063;39.614;8.814;2024-03-07T09:56:22;19.90;52.50
66271;DHT22;53063;39.614;8.814;2024-03-07T09:58:50;19.60;56.70
66271;DHT22;53063;39.614;8.814;2024-03-07T10:01:26;19.70;55.60
66271;DHT22;53063;39.614;8.814;2024-03-07T10:03:58;19.60;58.80
66271;DHT22;53063;39.614;8.814;2024-03-07T10:06:24;21.60;55.00
66271;DHT22;53063;39.614;8.814;2024-03-07T10:08:55;21.60;53.00
66271;DHT22;53063;39.614;8.814;2024-03-07T10:11:21;21.40;48.70
66271;DHT22;53063;39.614;8.814;2024-03-07T10:13:50;19.20;55.70
66271;DHT22;53063;39.614;8.814;2024-03-07T10:16:17;20.30;55.40
66271;DHT22;53063;39.614;8.814;2024-03-07T10:18:44;20.80;52.10
66271;DHT22;53063;39.614;8.814;2024-03-07T10:21:14;20.70;52.80
66271;DHT22;53063;39.614;8.814;2024-03-07T10:23:42;20.10;54.50
66271;DHT22;53063;39.614;8.814;2024-03-07T10:26:10;19.30;57.10
66271;DHT22;53063;39.614;8.814;2024-03-07T10:28:37;19.20;55.00
66271;DHT22;53063;39.614;8.814;2024-03-07T10:31:04;18.80;56.40
66271;DHT22;53063;39.614;8.814;2024-03-07T10:33:39;18.80;58.10
66271;DHT22;53063;39.614;8.814;2024-03-07T10:36:05;19.10;55.10
66271;DHT22;53063;39.614;8.814;2024-03-07T10:38:38;18.30;59.60
66271;DHT22;53063;39.614;8.814;2024-03-07T10:41:06;18.70;54.20
66271;DHT22;53063;39.614;8.814;2024-03-07T10:43:36;19.10;54.40
66271;DHT22;53063;39.614;8.814;2024-03-07T10:46:05;19.90;52.40
66271;DHT22;53063;39.614;8.814;2024-03-07T10:48:38;20.40;53.80
66271;DHT22;53063;39.614;8.814;2024-03-07T10:51:21;20.90;50.30
66271;DHT22;53063;39.614;8.814;2024-03-07T10:54:22;20.00;54.70
66271;DHT22;53063;39.614;8.814;2024-03-07T10:59:21;20.50;50.60
66271;DHT22;53063;39.614;8.814;2024-03-07T11:02:00;20.40;49.60
66271;DHT22;53063;39.614;8.814;2024-03-07T11:04:32;19.80;50.70
66271;DHT22;53063;39.614;8.814;2024-03-07T11:07:00;19.90;51.70
66271;DHT22;53063;39.614;8.814;2024-03-07T11:09:26;19.80;48.50
66271;DHT22;53063;39.614;8.814;2024-03-07T11:11:59;19.80;53.60
66271;DHT22;53063;39.614;8.814;2024-03-07T11:14:26;20.50;54.00
66271;DHT22;53063;39.614;8.814;2024-03-07T11:16:52;20.70;46.40
66271;DHT22;53063;39.614;8.814;2024-03-07T11:19:28;20.80;50.00
66271;DHT22;53063;39.614;8.814;2024-03-07T11:21:56;20.00;50.20
66271;DHT22;53063;39.614;8.814;2024-03-07T11:24:29;20.20;52.70
66271;DHT22;53063;39.614;8.814;2024-03-07T11:26:58;20.90;49.50
66271;DHT22;53063;39.614;8.814;2024-03-07T11:29:52;20.40;51.50
66271;DHT22;53063;39.614;8.814;2024-03-07T11:32:19;20.40;52.50
66271;DHT22;53063;39.614;8.814;2024-03-07T11:34:48;20.90;48.50
66271;DHT22;53063;39.614;8.814;2024-03-07T11:37:38;20.40;52.20
66271;DHT22;53063;39.614;8.814;2024-03-07T11:40:12;21.30;50.40
66271;DHT22;53063;39.614;8.814;2024-03-07T11:42:47;21.50;49.70
66271;DHT22;53063;39.614;8.814;2024-03-07T11:45:14;21.60;50.80
66271;DHT22;53063;39.614;8.814;2024-03-07T11:47:54;21.60;49.50
66271;DHT22;53063;39.614;8.814;2024-03-07T11:50:47;21.10;52.40
66271;DHT22;53063;39.614;8.814;2024-03-07T11:53:12;20.10;50.70
66271;DHT22;53063;39.614;8.814;2024-03-07T11:55:39;20.60;53.70
66271;DHT22;53063;39.614;8.814;2024-03-07T11:58:18;21.30;50.80
66271;DHT22;53063;39.614;8.814;2024-03-07T12:00:48;20.60;49.30
66271;DHT22;53063;39.614;8.814;2024-03-07T12:03:16;19.50;51.80
66271;DHT22;53063;39.614;8.814;2024-03-07T12:05:49;20.40;53.70
66271;DHT22;53063;39.614;8.814;2024-03-07T12:08:17;20.70;52.00
66271;DHT22;53063;39.614;8.814;2024-03-07T12:10:44;20.60;52.10
66271;DHT22;53063;39.614;8.814;2024-03-07T12:13:11;20.90;52.70
66271;DHT22;53063;39.614;8.814;2024-03-07T12:15:39;21.50;50.10
66271;DHT22;53063;39.614;8.814;2024-03-07T12:18:06;21.50;48.30
66271;DHT22;53063;39.614;8.814;2024-03-07T12:20:39;20.90;51.90
66271;DHT22;53063;39.614;8.814;2024-03-07T12:23:07;21.30;49.50
66271;DHT22;53063;39.614;8.814;2024-03-07T12:25:40;20.70;49.20
66271;DHT22;53063;39.614;8.814;2024-03-07T12:28:09;20.10;48.50
66271;DHT22;53063;39.614;8.814;2024-03-07T12:30:53;19.90;50.20
66271;DHT22;53063;39.614;8.814;2024-03-07T12:33:20;21.20;50.10
66271;DHT22;53063;39.614;8.814;2024-03-07T12:35:50;21.50;46.90
66271;DHT22;53063;39.614;8.814;2024-03-07T12:38:18;21.70;46.40
66271;DHT22;53063;39.614;8.814;2024-03-07T12:40:45;21.30;45.50
66271;DHT22;53063;39.614;8.814;2024-03-07T12:43:18;20.60;47.40
66271;DHT22;53063;39.614;8.814;2024-03-07T12:45:51;21.70;47.00
66271;DHT22;53063;39.614;8.814;2024-03-07T12:48:18;22.00;46.30
66271;DHT22;53063;39.614;8.814;2024-03-07T12:50:47;21.70;47.40
66271;DHT22;53063;39.614;8.814;2024-03-07T12:53:22;21.30;45.10
66271;DHT22;53063;39.614;8.814;2024-03-07T12:55:48;21.70;44.80
66271;DHT22;53063;39.614;8.814;2024-03-07T12:58:14;21.40;48.00
66271;DHT22;53063;39.614;8.814;2024-03-07T13:00:41;21.80;46.80
66271;DHT22;53063;39.614;8.814;2024-03-07T13:03:10;21.20;45.20
66271;DHT22;53063;39.614;8.814;2024-03-07T13:05:37;21.60;47.00
66271;DHT22;53063;39.614;8.814;2024-03-07T13:08:10;22.00;45.20
66271;DHT22;53063;39.614;8.814;2024-03-07T13:10:41;20.70;46.30
66271;DHT22;53063;39.614;8.814;2024-03-07T13:13:08;20.00;45.40
66271;DHT22;53063;39.614;8.814;2024-03-07T13:15:40;19.90;48.90
66271;DHT22;53063;39.614;8.814;2024-03-07T13:18:08;20.20;47.50
66271;DHT22;53063;39.614;8.814;2024-03-07T13:20:37;20.40;46.50
66271;DHT22;53063;39.614;8.814;2024-03-07T13:23:03;21.30;50.50
66271;DHT22;53063;39.614;8.814;2024-03-07T13:25:31;21.70;46.70
66271;DHT22;53063;39.614;8.814;2024-03-07T13:28:06;21.80;45.80
66271;DHT22;53063;39.614;8.814;2024-03-07T13:30:51;21.70;44.70
66271;DHT22;53063;39.614;8.814;2024-03-07T13:33:20;21.00;46.20
66271;DHT22;53063;39.614;8.814;2024-03-07T13:35:46;20.70;49.80
66271;DHT22;53063;39.614;8.814;2024-03-07T13:38:13;21.00;48.80
66271;DHT22;53063;39.614;8.814;2024-03-07T13:40:44;21.00;48.70
66271;DHT22;53063;39.614;8.814;2024-03-07T13:43:10;20.00;48.50
66271;DHT22;53063;39.614;8.814;2024-03-07T13:45:36;19.90;49.20
66271;DHT22;53063;39.614;8.814;2024-03-07T13:48:07;19.80;49.30
66271;DHT22;53063;39.614;8.814;2024-03-07T13:50:34;20.10;53.00
66271;DHT22;53063;39.614;8.814;2024-03-07T13:53:00;20.00;49.00
66271;DHT22;53063;39.614;8.814;2024-03-07T14:32:20;20.30;52.60
66271;DHT22;53063;39.614;8.814;2024-03-07T14:34:57;20.20;51.30
66271;DHT22;53063;39.614;8.814;2024-03-07T14:37:46;20.20;50.70
66271;DHT22;53063;39.614;8.814;2024-03-07T14:40:16;19.60;50.80
66271;DHT22;53063;39.614;8.814;2024-03-07T14:42:47;19.40;54.40
66271;DHT22;53063;39.614;8.814;2024-03-07T14:45:22;19.60;54.90
66271;DHT22;53063;39.614;8.814;2024-03-07T14:47:50;19.80;52.90
66271;DHT22;53063;39.614;8.814;2024-03-07T14:50:19;19.90;50.90
66271;DHT22;53063;39.614;8.814;2024-03-07T14:52:47;19.80;51.60
66271;DHT22;53063;39.614;8.814;2024-03-07T14:55:13;19.60;53.10
66271;DHT22;53063;39.614;8.814;2024-03-07T14:57:40;19.20;54.00
66271;DHT22;53063;39.614;8.814;2024-03-07T15:00:08;19.40;56.60
66271;DHT22;53063;39.614;8.814;2024-03-07T15:02:48;19.50;54.80
66271;DHT22;53063;39.614;8.814;2024-03-07T15:05:15;19.40;52.90
66271;DHT22;53063;39.614;8.814;2024-03-07T15:07:43;19.20;53.40
66271;DHT22;53063;39.614;8.814;2024-03-07T15:10:31;19.30;53.50
66271;DHT22;53063;39.614;8.814;2024-03-07T15:12:58;19.00;54.80
66271;DHT22;53063;39.614;8.814;2024-03-07T15:15:23;18.90;57.20
66271;DHT22;53063;39.614;8.814;2024-03-07T15:17:57;18.80;53.20
66271;DHT22;53063;39.614;8.814;2024-03-07T15:20:24;18.60;54.90
66271;DHT22;53063;39.614;8.814;2024-03-07T15:22:59;18.40;59.30
66271;DHT22;53063;39.614;8.814;2024-03-07T15:25:26;18.20;57.70
66271;DHT22;53063;39.614;8.814;2024-03-07T15:27:54;18.20;59.30
66271;DHT22;53063;39.614;8.814;2024-03-07T15:30:26;18.10;54.50
66271;DHT22;53063;39.614;8.814;2024-03-07T15:32:58;18.10;57.90
66271;DHT22;53063;39.614;8.814;2024-03-07T15:35:25;18.30;56.20
66271;DHT22;53063;39.614;8.814;2024-03-07T15:37:52;18.10;55.10
66271;DHT22;53063;39.614;8.814;2024-03-07T15:40:22;18.10;55.00
66271;DHT22;53063;39.614;8.814;2024-03-07T15:42:50;18.10;54.70
66271;DHT22;53063;39.614;8.814;2024-03-07T15:45:24;18.00;55.40
66271;DHT22;53063;39.614;8.814;2024-03-07T15:47:58;17.90;58.30
66271;DHT22;53063;39.614;8.814;2024-03-07T15:50:25;17.60;58.50
66271;DHT22;53063;39.614;8.814;2024-03-07T15:52:56;17.50;61.10
66271;DHT22;53063;39.614;8.814;2024-03-07T15:55:23;17.60;60.30
66271;DHT22;53063;39.614;8.814;2024-03-07T15:57:54;17.60;57.00
66271;DHT22;53063;39.614;8.814;2024-03-07T16:00:25;17.70;58.70
66271;DHT22;53063;39.614;8.814;2024-03-07T16:02:56;17.80;58.30
66271;DHT22;53063;39.614;8.814;2024-03-07T16:05:24;17.40;56.00
66271;DHT22;53063;39.614;8.814;2024-03-07T16:07:51;16.40;59.90
66271;DHT22;53063;39.614;8.814;2024-03-07T16:10:19;15.60;64.90
66271;DHT22;53063;39.614;8.814;2024-03-07T16:12:46;15.30;68.00
66271;DHT22;53063;39.614;8.814;2024-03-07T16:15:12;15.20;70.60
66271;DHT22;53063;39.614;8.814;2024-03-07T16:17:38;15.30;70.30
66271;DHT22;53063;39.614;8.814;2024-03-07T16:20:05;15.30;69.80
66271;DHT22;53063;39.614;8.814;2024-03-07T16:22:41;15.00;70.00
66271;DHT22;53063;39.614;8.814;2024-03-07T16:25:08;14.80;71.40